createdAt,value
2023-07-19T00:00:10.362Z,24.12
2023-07-19T00:05:24.982Z,23.70
2023-07-19T00:10:30.545Z,23.68
2023-07-19T00:15:35.063Z,24.13
2023-07-19T00:20:40.519Z,23.77
2023-07-19T00:25:46.813Z,23.67
2023-07-19T00:30:51.852Z,23.66
2023-07-19T00:35:57.731Z,23.48
2023-07-19T00:41:02.153Z,23.54
2023-07-19T00:46:10.143Z,23.28
2023-07-19T00:51:21.200Z,22.96
2023-07-19T00:56:26.289Z,23.14
2023-07-19T01:01:30.745Z,22.61
2023-07-19T01:06:39.485Z,22.54
2023-07-19T01:11:43.640Z,22.43
2023-07-19T01:16:48.311Z,22.47
2023-07-19T01:21:58.012Z,22.48
2023-07-19T01:27:20.624Z,22.37
2023-07-19T01:32:27.138Z,22.32
2023-07-19T01:37:31.345Z,22.39
2023-07-19T01:42:36.966Z,22.29
2023-07-19T01:47:41.220Z,22.34
2023-07-19T01:52:45.329Z,22.41
2023-07-19T01:57:51.145Z,22.02
2023-07-19T02:02:55.412Z,22.03
2023-07-19T02:07:59.654Z,22.08
2023-07-19T02:13:05.434Z,22.09
2023-07-19T02:18:10.130Z,21.94
2023-07-19T02:23:15.554Z,21.79
2023-07-19T02:28:21.547Z,21.65
2023-07-19T02:33:25.728Z,21.79
2023-07-19T02:38:30.407Z,21.73
2023-07-19T02:43:36.057Z,21.53
2023-07-19T02:48:40.847Z,21.46
2023-07-19T02:53:44.990Z,21.57
2023-07-19T02:58:50.705Z,21.50
2023-07-19T03:03:55.119Z,21.62
2023-07-19T03:08:59.544Z,21.19
2023-07-19T03:14:05.447Z,21.30
2023-07-19T03:19:13.844Z,21.23
2023-07-19T03:24:18.901Z,21.22
2023-07-19T03:29:27.018Z,21.43
2023-07-19T03:34:31.219Z,21.34
2023-07-19T03:39:36.487Z,20.63
2023-07-19T03:44:42.474Z,20.93
2023-07-19T03:49:47.068Z,21.04
2023-07-19T03:54:52.552Z,21.09
2023-07-19T04:00:05.110Z,21.09
2023-07-19T04:05:21.293Z,21.26
2023-07-19T04:10:26.268Z,21.31
2023-07-19T04:15:31.757Z,21.59
2023-07-19T04:20:37.957Z,21.63
2023-07-19T04:25:42.443Z,21.78
2023-07-19T04:30:51.596Z,21.77
2023-07-19T04:35:57.776Z,21.88
2023-07-19T04:41:05.005Z,22.09
2023-07-19T04:46:12.224Z,22.22
2023-07-19T04:51:17.956Z,22.32
2023-07-19T04:56:22.848Z,22.25
2023-07-19T05:01:29.022Z,22.40
2023-07-19T05:06:33.864Z,22.29
2023-07-19T05:11:38.393Z,22.40
2023-07-19T05:16:44.109Z,22.78
2023-07-19T05:21:48.353Z,22.89
2023-07-19T05:26:53.522Z,22.93
2023-07-19T05:31:59.218Z,23.09
2023-07-19T05:37:05.076Z,23.24
2023-07-19T05:42:10.902Z,23.40
2023-07-19T05:47:17.318Z,23.66
2023-07-19T05:52:21.500Z,23.76
2023-07-19T05:57:26.573Z,23.93
2023-07-19T06:02:47.468Z,23.85
2023-07-19T06:08:09.982Z,24.04
2023-07-19T06:13:23.475Z,24.15
2023-07-19T06:18:29.223Z,24.48
2023-07-19T06:23:33.457Z,24.60
2023-07-19T06:28:37.804Z,24.81
2023-07-19T06:33:43.462Z,25.00
2023-07-19T06:38:48.840Z,25.17
2023-07-19T06:43:56.027Z,25.24
2023-07-19T06:49:01.941Z,25.40
2023-07-19T06:54:15.010Z,25.62
2023-07-19T06:59:20.190Z,25.78
2023-07-19T07:04:26.356Z,25.97
2023-07-19T07:09:31.038Z,26.01
2023-07-19T07:14:35.718Z,26.03
2023-07-19T07:19:45.551Z,26.05
2023-07-19T07:24:49.986Z,26.12
2023-07-19T07:29:54.270Z,26.17
2023-07-19T07:35:00.216Z,26.39
2023-07-19T07:40:06.266Z,26.55
2023-07-19T07:45:11.423Z,26.69
2023-07-19T07:50:21.519Z,27.09
2023-07-19T07:55:26.538Z,27.19
2023-07-19T08:00:30.906Z,27.32
2023-07-19T08:05:36.578Z,27.47
2023-07-19T08:10:41.324Z,27.89
2023-07-19T08:15:45.414Z,28.01
2023-07-19T08:20:52.164Z,28.32
2023-07-19T08:26:00.183Z,28.62
2023-07-19T08:31:06.433Z,28.94
2023-07-19T08:36:12.860Z,29.23
2023-07-19T08:41:23.730Z,29.57
2023-07-19T08:46:29.644Z,29.88
2023-07-19T08:51:36.602Z,30.12
2023-07-19T08:56:41.050Z,30.32
2023-07-19T09:01:47.677Z,30.16
2023-07-19T09:06:53.216Z,29.95
2023-07-19T09:11:58.609Z,30.62
2023-07-19T09:17:06.541Z,31.13
2023-07-19T09:22:12.544Z,30.82
2023-07-19T09:27:25.948Z,31.13
2023-07-19T09:32:30.577Z,30.78
2023-07-19T09:37:38.028Z,30.78
2023-07-19T09:42:44.123Z,30.79
2023-07-19T09:47:48.461Z,31.31
2023-07-19T09:52:55.704Z,31.69
2023-07-19T09:58:01.677Z,32.01
2023-07-19T10:03:08.824Z,31.54
2023-07-19T10:08:14.359Z,31.86
2023-07-19T10:13:19.602Z,32.29
2023-07-19T10:18:25.951Z,31.83
2023-07-19T10:23:37.879Z,31.92
2023-07-19T10:28:43.742Z,32.03
2023-07-19T10:33:51.135Z,32.29
2023-07-19T10:38:57.263Z,32.28
2023-07-19T10:44:07.593Z,32.37
2023-07-19T10:49:11.930Z,32.40
2023-07-19T10:54:19.211Z,33.01
2023-07-19T10:59:24.675Z,32.91
2023-07-19T11:04:31.540Z,33.30
2023-07-19T11:09:37.581Z,32.69
2023-07-19T11:14:45.682Z,32.58
2023-07-19T11:19:50.665Z,32.64
2023-07-19T11:24:57.747Z,32.73
2023-07-19T11:30:03.453Z,33.08
2023-07-19T11:35:08.686Z,32.99
2023-07-19T11:40:17.784Z,32.91
2023-07-19T11:45:25.804Z,32.93
2023-07-19T11:50:31.277Z,32.94
2023-07-19T11:55:45.684Z,33.14
2023-07-19T12:00:53.837Z,32.90
2023-07-19T12:06:07.650Z,33.35
2023-07-19T12:11:30.994Z,32.96
2023-07-19T12:16:42.377Z,32.87
2023-07-19T12:21:51.277Z,32.68
2023-07-19T12:27:00.796Z,32.91
2023-07-19T12:32:05.429Z,33.37
2023-07-19T12:37:11.713Z,33.28
2023-07-19T12:42:18.282Z,33.44
2023-07-19T12:47:22.569Z,33.60
2023-07-19T12:52:37.995Z,33.56
2023-07-19T12:57:52.498Z,33.75
2023-07-19T13:02:57.831Z,34.35
2023-07-19T13:08:02.348Z,34.70
2023-07-19T13:13:09.346Z,34.94
2023-07-19T13:18:13.684Z,35.19
2023-07-19T13:23:18.517Z,34.70
2023-07-19T13:28:24.575Z,34.60
2023-07-19T13:33:28.892Z,34.75
2023-07-19T13:38:36.447Z,34.64
2023-07-19T13:43:48.238Z,34.62
2023-07-19T13:48:52.678Z,34.52
2023-07-19T13:53:56.818Z,34.63
2023-07-19T13:59:02.959Z,34.63
2023-07-19T14:04:08.110Z,34.64
2023-07-19T14:09:12.817Z,34.55
2023-07-19T14:14:19.086Z,34.67
2023-07-19T14:19:23.358Z,34.54
2023-07-19T14:24:28.576Z,34.44
2023-07-19T14:29:34.417Z,34.29
2023-07-19T14:34:39.839Z,34.23
2023-07-19T14:39:50.924Z,34.17
2023-07-19T14:44:58.484Z,34.00
2023-07-19T14:50:03.219Z,34.04
2023-07-19T14:55:09.015Z,33.94
2023-07-19T15:00:16.754Z,33.98
2023-07-19T15:05:21.431Z,33.91
2023-07-19T15:10:25.781Z,33.76
2023-07-19T15:15:32.349Z,33.75
2023-07-19T15:20:37.500Z,33.71
2023-07-19T15:25:42.024Z,33.15
2023-07-19T15:30:48.181Z,33.03
2023-07-19T15:35:53.716Z,32.89
2023-07-19T15:40:58.296Z,32.77
2023-07-19T15:46:05.027Z,32.82
2023-07-19T15:51:10.024Z,32.61
2023-07-19T15:56:14.138Z,32.62
2023-07-19T16:01:21.071Z,32.44
2023-07-19T16:06:25.779Z,32.45
2023-07-19T16:11:30.376Z,32.30
2023-07-19T16:16:36.698Z,32.07
2023-07-19T16:21:41.001Z,31.89
2023-07-19T16:26:45.571Z,31.96
2023-07-19T16:31:51.577Z,31.96
2023-07-19T16:36:57.138Z,31.77
2023-07-19T16:42:02.551Z,31.82
2023-07-19T16:47:10.317Z,31.74
2023-07-19T16:52:16.254Z,31.45
2023-07-19T16:57:20.487Z,31.59
2023-07-19T17:02:27.221Z,31.24
2023-07-19T17:07:33.938Z,30.91
2023-07-19T17:12:38.865Z,30.69
2023-07-19T17:17:44.587Z,30.53
2023-07-19T17:22:49.142Z,30.38
2023-07-19T17:27:54.144Z,30.12
2023-07-19T17:33:00.403Z,30.09
2023-07-19T17:38:05.193Z,29.83
2023-07-19T17:43:13.105Z,29.70
2023-07-19T17:48:19.265Z,29.37
2023-07-19T17:53:23.546Z,28.99
2023-07-19T17:58:28.131Z,28.69
2023-07-19T18:03:34.680Z,28.56
2023-07-19T18:08:39.124Z,28.22
2023-07-19T18:13:43.349Z,27.90
2023-07-19T18:18:49.194Z,27.64
2023-07-19T18:23:53.859Z,27.48
2023-07-19T18:28:58.685Z,27.27
2023-07-19T18:34:04.570Z,27.24
2023-07-19T18:39:10.359Z,27.23
2023-07-19T18:44:15.044Z,26.91
2023-07-19T18:49:21.410Z,26.75
2023-07-19T18:54:29.647Z,26.60
2023-07-19T18:59:36.170Z,26.37
2023-07-19T19:04:41.917Z,26.18
2023-07-19T19:09:46.239Z,26.04
2023-07-19T19:14:54.574Z,25.97
2023-07-19T19:20:00.399Z,26.00
2023-07-19T19:25:04.862Z,26.04
2023-07-19T19:30:10.394Z,25.50
2023-07-19T19:35:16.697Z,25.51
2023-07-19T19:40:21.496Z,25.44
2023-07-19T19:45:25.640Z,25.09
2023-07-19T19:50:31.410Z,25.18
2023-07-19T20:00:44.180Z,25.10
2023-07-19T20:11:00.215Z,24.82
2023-07-19T20:16:04.439Z,24.76
2023-07-19T20:21:10.302Z,24.80
2023-07-19T20:26:15.454Z,24.69
2023-07-19T20:41:36.647Z,24.74
2023-07-19T20:46:41.123Z,24.60
2023-07-19T20:51:47.252Z,24.36
2023-07-19T20:56:51.325Z,23.91
2023-07-19T21:01:55.665Z,23.58
2023-07-19T21:07:01.307Z,23.22
2023-07-19T21:12:08.725Z,23.27
2023-07-19T21:17:13.090Z,23.15
2023-07-19T21:22:18.879Z,22.99
2023-07-19T21:27:25.503Z,23.26
2023-07-19T21:32:30.458Z,23.51
2023-07-19T21:37:36.110Z,23.52
2023-07-19T21:42:40.378Z,23.33
2023-07-19T21:47:44.932Z,23.38
2023-07-19T21:52:51.659Z,23.45
2023-07-19T21:57:55.898Z,23.63
2023-07-19T22:03:00.229Z,23.42
2023-07-19T22:08:06.159Z,23.10
2023-07-19T22:13:11.272Z,22.98
2023-07-19T22:18:20.051Z,23.07
2023-07-19T22:23:25.943Z,23.01
2023-07-19T22:28:30.554Z,23.02
2023-07-19T22:33:34.843Z,22.84
2023-07-19T22:38:40.721Z,22.75
2023-07-19T22:43:44.946Z,23.18
2023-07-19T22:48:51.743Z,23.93
2023-07-19T22:53:57.294Z,24.02
2023-07-19T22:59:02.131Z,23.49
2023-07-19T23:04:06.606Z,22.89
2023-07-19T23:09:12.139Z,21.86
2023-07-19T23:14:16.664Z,21.79
2023-07-19T23:19:21.193Z,21.33
2023-07-19T23:24:29.322Z,21.40
2023-07-19T23:29:34.588Z,21.37
2023-07-19T23:34:38.936Z,21.34
2023-07-19T23:39:44.489Z,20.94
2023-07-19T23:44:53.444Z,20.63
2023-07-19T23:49:59.551Z,20.97
2023-07-19T23:55:06.345Z,21.18
